createdAt,value
2023-02-22T00:01:08.348Z,2.90
2023-02-22T00:03:36.518Z,3.30
2023-02-22T00:06:06.406Z,3.40
2023-02-22T00:08:37.187Z,2.60
2023-02-22T00:11:10.869Z,3.30
2023-02-22T00:13:39.369Z,3.80
2023-02-22T00:16:07.700Z,5.80
2023-02-22T00:18:35.906Z,4.70
2023-02-22T00:21:04.087Z,4.10
2023-02-22T00:23:32.992Z,4.20
2023-02-22T00:26:01.852Z,4.20
2023-02-22T00:28:30.944Z,4.10
2023-02-22T00:31:00.063Z,3.60
2023-02-22T00:33:28.216Z,3.50
2023-02-22T00:35:56.291Z,3.30
2023-02-22T00:38:24.879Z,3.40
2023-02-22T00:40:53.359Z,3.70
2023-02-22T00:43:21.460Z,3.60
2023-02-22T00:45:49.577Z,4.00
2023-02-22T00:48:19.726Z,3.80
2023-02-22T00:50:48.906Z,3.30
2023-02-22T00:53:16.980Z,3.80
2023-02-22T00:55:45.181Z,4.00
2023-02-22T00:58:13.226Z,3.90
2023-02-22T01:00:42.766Z,4.20
2023-02-22T01:03:13.411Z,4.40
2023-02-22T01:05:42.255Z,4.40
2023-02-22T01:08:13.387Z,4.70
2023-02-22T01:10:41.599Z,4.30
2023-02-22T01:13:12.530Z,5.60
2023-02-22T01:15:43.015Z,5.20
2023-02-22T01:18:12.811Z,5.00
2023-02-22T01:20:40.899Z,5.30
2023-02-22T01:23:10.813Z,5.70
2023-02-22T01:25:38.931Z,5.60
2023-02-22T01:28:08.300Z,6.50
2023-02-22T01:30:37.131Z,6.40
2023-02-22T01:33:07.707Z,7.20
2023-02-22T01:35:41.000Z,8.30
2023-02-22T01:38:10.532Z,7.40
2023-02-22T01:40:43.332Z,7.70
2023-02-22T01:43:31.934Z,7.00
2023-02-22T01:46:02.837Z,7.20
2023-02-22T01:48:34.840Z,8.40
2023-02-22T01:51:10.973Z,7.80
2023-02-22T01:53:54.832Z,7.70
2023-02-22T01:56:27.210Z,6.90
2023-02-22T01:59:02.918Z,7.40
2023-02-22T02:01:31.065Z,7.30
2023-02-22T02:04:02.020Z,7.90
2023-02-22T02:06:34.184Z,7.80
2023-02-22T02:09:23.400Z,9.10
2023-02-22T02:11:51.532Z,8.90
2023-02-22T02:14:22.104Z,8.80
2023-02-22T02:16:53.384Z,8.70
2023-02-22T02:19:40.563Z,8.50
2023-02-22T02:25:31.044Z,8.20
2023-02-22T02:28:20.621Z,8.00
2023-02-22T02:30:58.547Z,8.30
2023-02-22T02:33:33.800Z,7.90
2023-02-22T02:36:09.921Z,8.80
2023-02-22T02:38:59.610Z,8.30
2023-02-22T02:41:33.917Z,10.10
2023-02-22T02:44:40.189Z,8.60
2023-02-22T02:47:29.096Z,9.60
2023-02-22T02:50:10.625Z,8.40
2023-02-22T02:52:41.588Z,8.00
2023-02-22T02:55:11.527Z,7.60
2023-02-22T02:57:42.524Z,8.00
2023-02-22T03:00:24.313Z,8.20
2023-02-22T03:03:17.473Z,6.40
2023-02-22T03:06:10.425Z,5.90
2023-02-22T03:08:57.628Z,5.70
2023-02-22T03:11:32.378Z,4.90
2023-02-22T03:14:23.482Z,5.10
2023-02-22T03:17:09.982Z,4.80
2023-02-22T03:19:49.932Z,5.10
2023-02-22T03:22:26.499Z,4.60
2023-02-22T03:25:37.696Z,4.60
2023-02-22T03:28:13.078Z,4.80
2023-02-22T03:30:47.257Z,4.60
2023-02-22T03:33:21.042Z,5.20
2023-02-22T03:35:57.730Z,4.50
2023-02-22T03:38:29.169Z,4.50
2023-02-22T03:41:02.307Z,4.30
2023-02-22T03:43:42.554Z,4.30
2023-02-22T03:46:15.330Z,4.70
2023-02-22T03:48:54.427Z,4.30
2023-02-22T03:51:23.931Z,4.50
2023-02-22T03:53:54.769Z,4.10
2023-02-22T03:56:36.062Z,4.60
2023-02-22T03:59:07.057Z,5.10
2023-02-22T04:01:35.566Z,4.60
2023-02-22T04:04:04.478Z,4.30
2023-02-22T04:10:08.723Z,5.40
2023-02-22T04:12:37.919Z,5.50
2023-02-22T04:15:09.019Z,5.70
2023-02-22T04:17:37.829Z,8.20
2023-02-22T04:20:07.373Z,6.90
2023-02-22T04:22:49.838Z,7.30
2023-02-22T04:25:19.017Z,5.90
2023-02-22T04:27:48.855Z,7.00
2023-02-22T04:30:20.096Z,7.60
2023-02-22T04:32:49.514Z,7.80
2023-02-22T04:35:20.529Z,7.10
2023-02-22T04:37:48.798Z,7.30
2023-02-22T04:40:18.407Z,7.20
2023-02-22T04:42:46.682Z,6.70
2023-02-22T04:45:15.164Z,5.70
2023-02-22T04:47:43.236Z,5.40
2023-02-22T04:50:13.136Z,5.10
2023-02-22T04:52:41.383Z,5.50
2023-02-22T04:55:10.188Z,5.10
2023-02-22T04:57:38.794Z,5.10
2023-02-22T05:00:10.403Z,5.70
2023-02-22T05:02:40.152Z,6.50
2023-02-22T05:05:08.726Z,6.80
2023-02-22T05:07:36.934Z,6.50
2023-02-22T05:10:05.373Z,6.50
2023-02-22T05:12:33.359Z,7.40
2023-02-22T05:15:01.477Z,7.60
2023-02-22T05:17:29.632Z,6.90
2023-02-22T05:19:57.588Z,7.00
2023-02-22T05:22:25.846Z,7.40
2023-02-22T05:24:53.914Z,9.20
2023-02-22T05:27:22.087Z,8.80
2023-02-22T05:29:50.158Z,8.50
2023-02-22T05:32:18.269Z,8.60
2023-02-22T05:34:46.504Z,6.40
2023-02-22T05:37:14.502Z,7.30
2023-02-22T05:39:42.544Z,6.30
2023-02-22T05:42:10.511Z,7.40
2023-02-22T05:44:38.481Z,8.00
2023-02-22T05:47:06.558Z,11.50
2023-02-22T05:49:34.522Z,14.50
2023-02-22T05:52:02.612Z,7.50
2023-02-22T05:54:30.974Z,8.00
2023-02-22T05:56:59.038Z,9.30
2023-02-22T05:59:27.830Z,12.90
2023-02-22T06:01:56.093Z,13.20
2023-02-22T06:04:24.170Z,13.40
2023-02-22T06:06:52.249Z,13.30
2023-02-22T06:09:20.312Z,11.90
2023-02-22T06:11:48.384Z,13.20
2023-02-22T06:14:16.379Z,14.10
2023-02-22T06:16:44.421Z,13.10
2023-02-22T06:19:12.488Z,14.80
2023-02-22T06:21:42.261Z,19.00
2023-02-22T06:24:10.374Z,18.80
2023-02-22T06:26:38.336Z,20.60
2023-02-22T06:29:06.476Z,16.10
2023-02-22T06:31:34.533Z,14.80
2023-02-22T06:34:03.060Z,15.30
2023-02-22T06:36:31.717Z,15.10
2023-02-22T06:38:59.716Z,15.70
2023-02-22T06:41:27.790Z,14.20
2023-02-22T06:43:55.874Z,11.70
2023-02-22T06:46:23.831Z,12.30
2023-02-22T06:48:52.385Z,12.40
2023-02-22T06:51:22.220Z,12.30
2023-02-22T06:53:50.291Z,12.20
2023-02-22T06:56:18.407Z,10.00
2023-02-22T06:58:46.539Z,8.40
2023-02-22T07:01:14.751Z,8.30
2023-02-22T07:03:43.406Z,7.90
2023-02-22T07:06:11.567Z,7.70
2023-02-22T07:08:39.739Z,8.30
2023-02-22T07:11:07.741Z,7.40
2023-02-22T07:13:35.784Z,8.10
2023-02-22T07:16:04.080Z,8.00
2023-02-22T07:18:32.232Z,7.50
2023-02-22T07:21:00.409Z,8.00
2023-02-22T07:23:28.448Z,8.60
2023-02-22T07:25:56.953Z,8.60
2023-02-22T07:28:25.242Z,9.80
2023-02-22T07:30:53.301Z,10.90
2023-02-22T07:33:21.493Z,12.80
2023-02-22T07:35:51.150Z,12.90
2023-02-22T07:38:21.325Z,13.60
2023-02-22T07:40:49.503Z,15.20
2023-02-22T07:43:22.885Z,19.80
2023-02-22T07:45:54.037Z,23.00
2023-02-22T07:48:24.958Z,23.80
2023-02-22T07:50:53.154Z,26.30
2023-02-22T07:53:22.328Z,27.30
2023-02-22T07:55:51.324Z,24.80
2023-02-22T07:58:23.078Z,24.60
2023-02-22T08:00:51.438Z,15.70
2023-02-22T08:03:21.610Z,16.20
2023-02-22T08:05:52.715Z,19.50
2023-02-22T08:08:21.620Z,22.50
2023-02-22T08:10:51.407Z,18.90
2023-02-22T08:13:22.364Z,17.80
2023-02-22T08:15:53.400Z,13.50
2023-02-22T08:18:22.693Z,13.70
2023-02-22T08:20:52.293Z,15.80
2023-02-22T08:23:23.629Z,17.50
2023-02-22T08:25:51.973Z,15.90
2023-02-22T08:28:23.588Z,12.30
2023-02-22T08:30:52.181Z,11.90
2023-02-22T08:33:22.174Z,11.50
2023-02-22T08:35:50.691Z,12.00
2023-02-22T08:38:25.534Z,12.20
2023-02-22T08:40:53.856Z,12.60
2023-02-22T08:43:22.851Z,13.20
2023-02-22T08:45:52.205Z,14.90
2023-02-22T08:48:20.782Z,14.60
2023-02-22T08:50:48.904Z,14.30
2023-02-22T08:53:17.297Z,14.40
2023-02-22T08:55:45.768Z,13.10
2023-02-22T08:58:14.167Z,13.30
2023-02-22T09:00:45.012Z,14.00
2023-02-22T09:03:15.220Z,13.80
2023-02-22T09:05:44.304Z,13.20
2023-02-22T09:08:12.872Z,11.90
2023-02-22T09:10:41.153Z,11.20
2023-02-22T09:13:09.277Z,10.40
2023-02-22T09:15:39.769Z,10.60
2023-02-22T09:18:11.201Z,10.50
2023-02-22T09:20:39.666Z,9.40
2023-02-22T09:23:09.920Z,9.70
2023-02-22T09:25:40.939Z,8.30
2023-02-22T09:28:09.964Z,8.50
2023-02-22T09:30:38.298Z,9.10
2023-02-22T09:33:18.291Z,9.10
2023-02-22T09:35:49.985Z,10.90
2023-02-22T09:38:20.539Z,11.20
2023-02-22T09:41:08.759Z,10.40
2023-02-22T09:43:49.657Z,10.40
2023-02-22T09:46:36.459Z,10.70
2023-02-22T09:49:39.177Z,11.40
2023-02-22T09:52:17.006Z,11.70
2023-02-22T09:54:56.172Z,11.00
2023-02-22T09:57:35.271Z,10.20
2023-02-22T10:00:17.108Z,11.40
2023-02-22T10:02:59.867Z,10.80
2023-02-22T10:05:33.927Z,10.80
2023-02-22T10:08:10.692Z,10.30
2023-02-22T10:10:47.359Z,10.90
2023-02-22T10:13:46.053Z,10.30
2023-02-22T10:16:38.735Z,10.40
2023-02-22T10:19:28.151Z,11.20
2023-02-22T10:22:31.055Z,13.20
2023-02-22T10:25:09.663Z,13.00
2023-02-22T10:27:42.762Z,14.50
2023-02-22T10:30:34.274Z,14.90
2023-02-22T10:33:22.138Z,13.80
2023-02-22T10:35:52.591Z,12.80
2023-02-22T10:38:24.810Z,11.30
2023-02-22T10:41:11.136Z,12.60
2023-02-22T10:43:44.162Z,12.40
2023-02-22T10:46:17.426Z,10.10
2023-02-22T10:48:50.383Z,10.10
2023-02-22T10:51:18.662Z,11.10
2023-02-22T10:53:58.460Z,11.40
2023-02-22T10:56:28.770Z,12.10
2023-02-22T10:59:04.333Z,11.00
2023-02-22T11:01:32.498Z,10.80
2023-02-22T11:04:05.852Z,12.30
2023-02-22T11:06:35.490Z,13.50
2023-02-22T11:09:06.669Z,10.40
2023-02-22T11:11:34.647Z,9.90
2023-02-22T11:14:06.883Z,9.20
2023-02-22T11:16:36.653Z,7.80
2023-02-22T11:19:20.781Z,7.40
2023-02-22T11:21:54.310Z,8.40
2023-02-22T11:24:25.184Z,6.90
2023-02-22T11:27:06.130Z,6.90
2023-02-22T11:29:37.736Z,7.20
2023-02-22T11:32:23.320Z,7.30
2023-02-22T11:35:03.619Z,6.80
2023-02-22T11:37:37.026Z,7.10
2023-02-22T11:40:20.163Z,7.00
2023-02-22T11:43:12.370Z,6.90
2023-02-22T11:46:01.998Z,7.00
2023-02-22T11:48:39.204Z,7.90
2023-02-22T11:51:26.941Z,8.70
2023-02-22T11:54:12.830Z,7.90
2023-02-22T11:56:47.159Z,8.10
2023-02-22T11:59:43.511Z,8.80
2023-02-22T12:02:51.827Z,8.40
2023-02-22T12:05:37.304Z,6.70
2023-02-22T12:08:31.556Z,7.00
2023-02-22T12:11:13.266Z,7.50
2023-02-22T12:14:23.485Z,7.50
2023-02-22T12:17:31.076Z,6.70
2023-02-22T12:20:13.521Z,6.80
2023-02-22T12:23:07.029Z,6.40
2023-02-22T12:25:41.054Z,6.40
2023-02-22T12:28:25.469Z,7.50
2023-02-22T12:31:07.190Z,7.20
2023-02-22T12:33:52.012Z,8.10
2023-02-22T12:36:25.675Z,7.30
2023-02-22T12:39:07.237Z,7.80
2023-02-22T12:41:48.482Z,8.00
2023-02-22T12:44:39.058Z,6.50
2023-02-22T12:47:14.253Z,6.40
2023-02-22T12:50:02.108Z,6.70
2023-02-22T12:52:44.474Z,6.70
2023-02-22T12:55:25.218Z,6.70
2023-02-22T12:58:11.989Z,7.50
2023-02-22T13:00:48.128Z,6.80
2023-02-22T13:03:37.528Z,6.90
2023-02-22T13:06:21.971Z,7.40
2023-02-22T13:09:21.050Z,7.20
2023-02-22T13:11:58.455Z,6.90
2023-02-22T13:14:35.808Z,7.80
2023-02-22T13:17:21.258Z,7.60
2023-02-22T13:20:06.375Z,9.30
2023-02-22T13:23:10.666Z,8.60
2023-02-22T13:25:58.164Z,7.90
2023-02-22T13:28:49.451Z,7.60
2023-02-22T13:31:54.631Z,13.50
2023-02-22T13:34:38.536Z,10.20
2023-02-22T13:37:24.096Z,12.10
2023-02-22T13:40:10.619Z,15.20
2023-02-22T13:43:00.027Z,9.50
2023-02-22T13:45:28.154Z,8.50
2023-02-22T13:48:02.362Z,8.90
2023-02-22T13:50:48.868Z,9.70
2023-02-22T13:53:33.129Z,8.50
2023-02-22T13:56:01.597Z,7.70
2023-02-22T13:58:29.888Z,10.60
2023-02-22T14:00:59.906Z,11.80
2023-02-22T14:03:40.587Z,11.60
2023-02-22T14:06:41.762Z,10.30
2023-02-22T14:09:19.237Z,9.70
2023-02-22T14:11:47.933Z,9.60
2023-02-22T14:14:17.985Z,13.20
2023-02-22T14:17:23.797Z,13.00
2023-02-22T14:20:02.371Z,15.40
2023-02-22T14:22:31.170Z,9.90
2023-02-22T14:24:59.537Z,9.20
2023-02-22T14:27:40.606Z,9.40
2023-02-22T14:30:26.267Z,12.00
2023-02-22T14:32:54.540Z,10.80
2023-02-22T14:35:28.590Z,11.10
2023-02-22T14:38:00.516Z,11.30
2023-02-22T14:40:31.828Z,14.10
2023-02-22T14:43:06.255Z,20.60
2023-02-22T14:45:39.994Z,13.30
2023-02-22T14:48:14.483Z,8.60
2023-02-22T14:50:45.428Z,4.50
2023-02-22T14:53:13.737Z,4.90
2023-02-22T14:56:04.209Z,5.30
2023-02-22T14:58:46.997Z,5.00
2023-02-22T15:01:49.144Z,8.30
2023-02-22T15:04:33.509Z,7.40
2023-02-22T15:07:16.138Z,9.90
2023-02-22T15:09:46.919Z,9.70
2023-02-22T15:12:24.824Z,10.80
2023-02-22T15:15:13.820Z,24.10
2023-02-22T15:17:42.661Z,25.70
2023-02-22T15:20:16.813Z,21.80
2023-02-22T15:22:44.987Z,16.20
2023-02-22T15:25:13.105Z,20.30
2023-02-22T15:27:47.658Z,19.80
2023-02-22T15:30:22.494Z,9.20
2023-02-22T15:33:03.523Z,10.10
2023-02-22T15:35:33.961Z,17.90
2023-02-22T15:38:17.718Z,19.90
2023-02-22T15:40:50.727Z,15.10
2023-02-22T15:43:25.182Z,14.20
2023-02-22T15:45:54.319Z,10.10
2023-02-22T15:48:23.646Z,8.40
2023-02-22T15:51:04.736Z,9.20
2023-02-22T15:53:43.116Z,9.00
2023-02-22T15:56:30.125Z,9.00
2023-02-22T15:59:09.934Z,9.30
2023-02-22T16:01:42.520Z,12.20
2023-02-22T16:04:23.280Z,12.70
2023-02-22T16:06:54.686Z,15.80
2023-02-22T16:09:26.368Z,15.70
2023-02-22T16:12:20.363Z,13.60
2023-02-22T16:14:50.108Z,11.70
2023-02-22T16:17:35.652Z,16.10
2023-02-22T16:20:18.826Z,14.30
2023-02-22T16:22:51.596Z,10.50
2023-02-22T16:25:19.708Z,12.50
2023-02-22T16:27:56.026Z,10.50
2023-02-22T16:30:34.165Z,11.50
2023-02-22T16:33:13.904Z,9.40
2023-02-22T16:35:52.039Z,12.40
2023-02-22T16:38:21.393Z,15.10
2023-02-22T16:40:55.584Z,17.00
2023-02-22T16:43:31.650Z,16.70
2023-02-22T16:46:04.090Z,26.20
2023-02-22T16:48:33.630Z,22.80
2023-02-22T16:51:24.735Z,21.20
2023-02-22T16:53:56.494Z,18.40
2023-02-22T16:56:31.327Z,14.40
2023-02-22T16:59:03.700Z,15.70
2023-02-22T17:01:35.336Z,16.80
2023-02-22T17:04:09.591Z,18.20
2023-02-22T17:06:37.638Z,18.30
2023-02-22T17:09:05.629Z,17.80
2023-02-22T17:11:35.357Z,15.20
2023-02-22T17:14:04.221Z,15.80
2023-02-22T17:16:32.313Z,16.60
2023-02-22T17:19:00.450Z,19.20
2023-02-22T17:21:28.620Z,22.20
2023-02-22T17:23:56.856Z,17.50
2023-02-22T17:26:26.390Z,17.80
2023-02-22T17:28:54.595Z,12.80
2023-02-22T17:31:27.122Z,11.50
2023-02-22T17:34:02.363Z,10.70
2023-02-22T17:36:32.163Z,10.80
2023-02-22T17:39:01.132Z,11.80
2023-02-22T17:41:29.717Z,10.40
2023-02-22T17:43:58.208Z,11.20
2023-02-22T17:46:26.747Z,11.50
2023-02-22T17:48:54.923Z,9.70
2023-02-22T17:51:27.054Z,10.30
2023-02-22T17:53:55.150Z,11.10
2023-02-22T17:56:23.322Z,10.40
2023-02-22T17:58:54.797Z,10.80
2023-02-22T18:01:25.211Z,11.00
2023-02-22T18:03:55.317Z,10.50
2023-02-22T18:06:27.189Z,10.50
2023-02-22T18:08:57.189Z,10.70
2023-02-22T18:11:26.624Z,9.90
2023-02-22T18:13:56.773Z,9.50
2023-02-22T18:16:27.256Z,9.60
2023-02-22T18:18:56.328Z,10.10
2023-02-22T18:21:24.701Z,9.30
2023-02-22T18:23:54.130Z,9.20
2023-02-22T18:26:24.188Z,9.60
2023-02-22T18:28:53.968Z,8.90
2023-02-22T18:31:23.420Z,8.30
2023-02-22T18:33:53.254Z,8.60
2023-02-22T18:36:23.548Z,9.00
2023-02-22T18:38:54.010Z,10.40
2023-02-22T18:41:27.392Z,10.40
2023-02-22T18:43:57.761Z,11.80
2023-02-22T18:46:25.971Z,25.90
2023-02-22T18:48:56.728Z,69.20
2023-02-22T18:51:26.501Z,48.80
2023-02-22T18:54:00.524Z,33.40
2023-02-22T18:56:30.402Z,20.80
2023-02-22T18:59:03.292Z,27.90
2023-02-22T19:01:38.916Z,20.80
2023-02-22T19:04:12.758Z,19.40
2023-02-22T19:06:43.254Z,16.30
2023-02-22T19:09:11.304Z,15.70
2023-02-22T19:11:44.877Z,16.70
2023-02-22T19:14:14.054Z,16.10
2023-02-22T19:16:45.022Z,16.20
2023-02-22T19:19:15.048Z,13.50
2023-02-22T19:21:43.213Z,15.00
2023-02-22T19:24:11.384Z,13.10
2023-02-22T19:26:39.760Z,13.50
2023-02-22T19:29:08.655Z,15.30
2023-02-22T19:31:37.196Z,17.80
2023-02-22T19:34:09.366Z,16.40
2023-02-22T19:36:45.005Z,12.90
2023-02-22T19:39:18.231Z,14.00
2023-02-22T19:41:46.982Z,14.50
2023-02-22T19:44:15.042Z,13.40
2023-02-22T19:46:43.161Z,13.40
2023-02-22T19:49:11.242Z,13.40
2023-02-22T19:51:42.532Z,14.00
2023-02-22T19:54:17.526Z,14.60
2023-02-22T19:56:50.943Z,14.40
2023-02-22T19:59:23.181Z,14.70
2023-02-22T20:01:55.182Z,14.80
2023-02-22T20:04:24.279Z,15.60
2023-02-22T20:06:54.781Z,16.20
2023-02-22T20:09:30.115Z,15.50
2023-02-22T20:11:58.212Z,15.00
2023-02-22T20:14:28.810Z,15.10
2023-02-22T20:16:58.256Z,15.50
2023-02-22T20:19:27.504Z,17.90
2023-02-22T20:21:56.399Z,21.50
2023-02-22T20:24:25.624Z,22.50
2023-02-22T20:26:55.986Z,21.40
2023-02-22T20:29:29.688Z,23.00
2023-02-22T20:32:00.255Z,21.20
2023-02-22T20:34:33.511Z,23.10
2023-02-22T20:37:03.051Z,20.30
2023-02-22T20:39:31.329Z,15.70
2023-02-22T20:42:00.733Z,15.80
2023-02-22T20:44:29.107Z,13.50
2023-02-22T20:46:57.284Z,13.80
2023-02-22T20:49:27.475Z,13.60
2023-02-22T20:51:55.681Z,12.20
2023-02-22T20:54:24.163Z,13.20
2023-02-22T20:56:53.110Z,13.60
2023-02-22T20:59:21.830Z,12.80
2023-02-22T21:01:50.484Z,11.50
2023-02-22T21:04:19.240Z,12.80
2023-02-22T21:06:47.302Z,15.50
2023-02-22T21:09:18.409Z,13.60
2023-02-22T21:11:46.789Z,13.00
2023-02-22T21:14:18.968Z,11.40
2023-02-22T21:16:49.299Z,11.00
2023-02-22T21:19:27.713Z,11.80
2023-02-22T21:21:58.138Z,13.30
2023-02-22T21:24:28.139Z,13.80
2023-02-22T21:26:59.168Z,12.10
2023-02-22T21:29:29.320Z,10.50
2023-02-22T21:31:57.870Z,10.30
2023-02-22T21:34:26.295Z,11.50
2023-02-22T21:36:54.644Z,10.70
2023-02-22T21:39:28.338Z,11.90
2023-02-22T21:42:01.241Z,12.60
2023-02-22T21:44:30.066Z,12.70
2023-02-22T21:46:58.698Z,11.50
2023-02-22T21:49:26.754Z,11.10
2023-02-22T21:51:54.936Z,10.80
2023-02-22T21:54:23.601Z,10.40
2023-02-22T21:56:51.793Z,10.20
2023-02-22T21:59:23.620Z,10.70
2023-02-22T22:01:56.054Z,11.00
2023-02-22T22:04:29.921Z,13.00
2023-02-22T22:06:59.765Z,12.10
2023-02-22T22:09:33.369Z,14.30
2023-02-22T22:12:05.386Z,14.20
2023-02-22T22:14:35.416Z,14.00
2023-02-22T22:17:07.154Z,13.40
2023-02-22T22:19:40.650Z,13.90
2023-02-22T22:22:09.396Z,16.10
2023-02-22T22:24:46.002Z,18.50
2023-02-22T22:27:14.198Z,20.10
2023-02-22T22:29:43.707Z,23.10
2023-02-22T22:32:11.930Z,20.20
2023-02-22T22:34:40.045Z,15.80
2023-02-22T22:37:09.033Z,14.80
2023-02-22T22:39:38.642Z,16.10
2023-02-22T22:42:07.115Z,20.10
2023-02-22T22:44:42.356Z,16.20
2023-02-22T22:47:13.941Z,16.00
2023-02-22T22:49:42.871Z,16.20
2023-02-22T22:52:14.117Z,15.60
2023-02-22T22:54:43.775Z,14.00
2023-02-22T22:57:12.230Z,12.70
2023-02-22T22:59:40.307Z,11.80
2023-02-22T23:02:11.137Z,12.50
2023-02-22T23:04:39.129Z,13.70
2023-02-22T23:07:07.286Z,13.20
2023-02-22T23:09:37.724Z,13.70
2023-02-22T23:12:09.355Z,13.30
2023-02-22T23:14:39.887Z,13.40
2023-02-22T23:17:14.445Z,12.10
2023-02-22T23:19:47.397Z,13.30
2023-02-22T23:22:15.471Z,14.30
2023-02-22T23:24:45.701Z,14.00
2023-02-22T23:27:14.068Z,13.40
2023-02-22T23:29:42.960Z,13.70
2023-02-22T23:32:11.175Z,15.10
2023-02-22T23:34:41.661Z,13.70
2023-02-22T23:37:10.612Z,14.20
2023-02-22T23:39:39.337Z,14.20
2023-02-22T23:42:10.392Z,18.70
2023-02-22T23:44:39.978Z,16.00
2023-02-22T23:47:09.786Z,15.70
2023-02-22T23:49:38.863Z,15.10
2023-02-22T23:52:08.704Z,14.70
2023-02-22T23:54:40.517Z,14.80
2023-02-22T23:57:09.067Z,18.50
2023-02-22T23:59:40.682Z,15.60
